Terminal Aerodrome Forecast
Issued by NWS

Home | Current Version | Previous Version | Text Only | Print | Product List | Glossary On
Versions: 1 2 3 4 5 6 7 8 9 10 11 12 13 14 15
425
FTUS41 KLWX 192325
TAFMTN
TAF
KMTN 192325Z 2000/2024 33006KT P6SM SCT045 SCT100
     FM200800 32006KT P6SM FEW150
      AMD NOT SKED 2002/2012=

USA.gov is the U.S. government's official web portal to all federal, state and local government web resources and services.